Time;durP1;ratioP1;P1;durP2;ratioP2;P2;SDS_P1;SDS_P2;PMS_P1;PMS_P2;Temp;Humidity;BMP_temperature;BMP_pressure;BME280_temperature;BME280_humidity;BME280_pressure;Samples;Min_cycle;Max_cycle;Signal;HPM_P1;HPM_P2
2021/07/14 00:01:17;;;;;;;53.63;20.45;;;;;16.10;100858.00;;;;5045751;28;20147;-70
2021/07/14 00:03:44;;;;;;;42.40;20.60;;;;;16.10;100867.00;;;;5046636;28;20040;-71
2021/07/14 00:06:10;;;;;;;38.45;19.13;;;;;16.10;100855.00;;;;5039010;28;20073;-72
2021/07/14 00:08:37;;;;;;;45.42;19.08;;;;;16.10;100867.00;;;;5033710;28;20551;-71
2021/07/14 00:11:04;;;;;;;38.00;19.60;;;;;16.10;100865.00;;;;5037646;28;20025;-71
2021/07/14 00:13:56;;;;;;;42.78;19.38;;;;;16.10;100872.00;;;;5046287;28;20033;-72
2021/07/14 00:22:12;;;;;;;32.22;19.42;;;;;16.30;100876.00;;;;5046314;28;20064;-71
2021/07/14 00:24:39;;;;;;;40.78;20.17;;;;;16.30;100872.00;;;;5045992;28;20411;-72
2021/07/14 00:27:09;;;;;;;36.90;20.88;;;;;16.30;100872.00;;;;5046200;28;20036;-72
2021/07/14 00:29:40;;;;;;;29.83;20.17;;;;;16.30;100883.00;;;;5044535;28;20385;-72
2021/07/14 00:32:09;;;;;;;35.92;19.77;;;;;16.20;100890.00;;;;5045811;28;20025;-73
2021/07/14 00:34:36;;;;;;;48.55;22.42;;;;;16.20;100890.00;;;;5045325;28;20504;-74
2021/07/14 00:37:03;;;;;;;41.47;22.33;;;;;16.20;100890.00;;;;5045076;28;20025;-71
2021/07/14 00:39:30;;;;;;;40.97;22.05;;;;;16.20;100885.00;;;;5044543;28;20202;-70
2021/07/14 00:41:57;;;;;;;45.63;21.45;;;;;16.20;100873.00;;;;5045563;28;20021;-71
2021/07/14 00:44:23;;;;;;;32.20;20.30;;;;;16.10;100877.00;;;;5045321;28;20041;-72
2021/07/14 00:46:50;;;;;;;36.20;20.88;;;;;16.10;100880.00;;;;5045093;28;20079;-71
2021/07/14 00:49:18;;;;;;;32.42;20.83;;;;;16.00;100887.00;;;;5045255;28;20606;-70
2021/07/14 00:51:46;;;;;;;47.60;23.20;;;;;16.00;100891.00;;;;5045239;28;20844;-71
2021/07/14 00:54:16;;;;;;;41.38;23.45;;;;;16.00;100884.00;;;;5045474;28;20393;-70
2021/07/14 00:56:44;;;;;;;38.38;22.05;;;;;16.00;100883.00;;;;5045405;28;20528;-73
2021/07/14 00:59:10;;;;;;;31.85;20.90;;;;;15.90;100914.00;;;;5045375;28;20438;-71
2021/07/14 01:01:37;;;;;;;34.25;20.95;;;;;15.90;100914.00;;;;5044896;28;20025;-72
2021/07/14 01:04:11;;;;;;;44.78;20.85;;;;;15.90;100921.00;;;;5045656;28;20754;-71
2021/07/14 01:06:48;;;;;;;33.58;22.52;;;;;15.90;100907.00;;;;5046344;28;20068;-73
2021/07/14 01:09:20;;;;;;;38.67;22.63;;;;;15.90;100933.00;;;;5045681;28;20021;-69
2021/07/14 01:11:47;;;;;;;40.83;23.00;;;;;15.90;100934.00;;;;5046003;28;20086;-71
2021/07/14 01:14:23;;;;;;;34.83;22.42;;;;;16.00;100922.00;;;;5046012;28;20047;-72
2021/07/14 01:17:13;;;;;;;36.17;25.48;;;;;15.90;100935.00;;;;5045950;28;20056;-72
2021/07/14 01:20:04;;;;;;;41.15;24.25;;;;;15.90;100943.00;;;;5048958;28;20048;-73
2021/07/14 01:23:07;;;;;;;36.65;24.10;;;;;16.00;100950.00;;;;5049366;28;20464;-70
2021/07/14 01:25:52;;;;;;;33.65;23.80;;;;;16.00;100950.00;;;;5049339;28;20033;-71
2021/07/14 01:28:22;;;;;;;35.75;21.70;;;;;15.90;100942.00;;;;5049844;28;20036;-71
2021/07/14 01:30:50;;;;;;;41.45;22.45;;;;;15.90;100958.00;;;;5049054;28;20036;-71
2021/07/14 01:33:21;;;;;;;35.47;22.45;;;;;15.80;100933.00;;;;5049518;28;20036;-71
2021/07/14 01:35:51;;;;;;;37.90;24.35;;;;;15.90;100933.00;;;;5049031;28;20558;-73
2021/07/14 01:38:20;;;;;;;34.15;24.20;;;;;15.90;100927.00;;;;5048700;28;20099;-70
2021/07/14 01:40:48;;;;;;;33.40;22.40;;;;;15.80;100944.00;;;;5048810;28;20499;-71
2021/07/14 01:43:15;;;;;;;35.30;23.02;;;;;15.80;100938.00;;;;5048614;28;20029;-69
2021/07/14 01:45:43;;;;;;;36.90;25.50;;;;;15.80;100958.00;;;;5049013;28;20488;-73
2021/07/14 01:48:11;;;;;;;35.53;24.40;;;;;15.80;100933.00;;;;5048797;28;20116;-71
2021/07/14 01:50:39;;;;;;;38.95;25.08;;;;;15.80;100939.00;;;;5048881;28;20703;-73
2021/07/14 01:53:07;;;;;;;35.60;23.23;;;;;15.80;100932.00;;;;5048479;28;20178;-73
2021/07/14 01:55:37;;;;;;;39.47;23.58;;;;;15.80;100922.00;;;;5048780;28;20032;-73
2021/07/14 01:58:04;;;;;;;33.28;23.98;;;;;15.80;100941.00;;;;5048889;28;20067;-70
2021/07/14 02:00:32;;;;;;;32.97;25.63;;;;;15.80;100921.00;;;;5049367;28;20040;-71
2021/07/14 02:06:06;;;;;;;40.53;26.35;;;;;15.80;100913.00;;;;5006029;28;20091;-72
2021/07/14 02:08:37;;;;;;;33.10;24.45;;;;;15.80;100918.00;;;;5005912;28;20030;-72
2021/07/14 02:11:04;;;;;;;38.50;24.42;;;;;15.80;100913.00;;;;5027268;28;20041;-70
2021/07/14 02:13:32;;;;;;;36.85;24.25;;;;;15.80;100936.00;;;;5048411;28;20086;-72
2021/07/14 02:16:00;;;;;;;35.58;24.27;;;;;15.80;100930.00;;;;5048386;28;20025;-69
2021/07/14 02:18:32;;;;;;;37.97;25.55;;;;;15.80;100943.00;;;;5048190;28;20024;-72
2021/07/14 02:21:00;;;;;;;33.17;25.33;;;;;15.80;100937.00;;;;5047895;28;20029;-71
2021/07/14 02:23:27;;;;;;;38.85;25.85;;;;;15.80;100926.00;;;;5049009;28;20112;-71
2021/07/14 02:25:54;;;;;;;39.80;25.67;;;;;15.80;100943.00;;;;5048227;28;20032;-72
2021/07/14 02:28:20;;;;;;;42.63;26.30;;;;;15.80;100960.00;;;;5048167;28;20037;-72
2021/07/14 02:30:47;;;;;;;43.50;25.27;;;;;15.90;100974.00;;;;5046524;28;20120;-73
2021/07/14 02:33:14;;;;;;;41.33;25.55;;;;;15.80;100979.00;;;;5047874;28;20029;-72
2021/07/14 02:35:43;;;;;;;40.78;25.20;;;;;15.90;100985.00;;;;5047572;28;20036;-72
2021/07/14 02:38:33;;;;;;;29.20;23.00;;;;;15.90;100983.00;;;;5047705;28;20024;-72
2021/07/14 02:41:19;;;;;;;45.03;27.83;;;;;15.90;100981.00;;;;5044783;28;20037;-72
2021/07/14 02:43:51;;;;;;;37.85;25.52;;;;;15.90;100991.00;;;;5047544;28;20033;-70
2021/07/14 02:46:26;;;;;;;35.50;26.10;;;;;15.90;100997.00;;;;5048270;28;20021;-72
2021/07/14 02:49:00;;;;;;;41.25;27.27;;;;;15.90;100984.00;;;;5048058;28;20033;-72
2021/07/14 02:51:31;;;;;;;38.10;25.35;;;;;16.00;100981.00;;;;5047581;28;20036;-73
2021/07/14 02:54:02;;;;;;;48.20;24.55;;;;;16.00;100964.00;;;;5047744;28;20033;-71
2021/07/14 02:56:31;;;;;;;43.40;25.70;;;;;16.00;100952.00;;;;5047581;28;20450;-70
2021/07/14 02:59:08;;;;;;;31.65;25.15;;;;;15.90;100955.00;;;;5046973;28;20037;-70
2021/07/14 03:01:41;;;;;;;37.95;26.70;;;;;15.90;100970.00;;;;5047756;28;20032;-72
2021/07/14 03:04:10;;;;;;;40.80;26.85;;;;;15.80;100983.00;;;;5047266;28;20032;-72
2021/07/14 03:06:38;;;;;;;39.38;24.90;;;;;15.80;100989.00;;;;5047409;28;20028;-72
2021/07/14 03:09:06;;;;;;;34.85;25.60;;;;;15.80;100994.00;;;;5047236;28;20048;-72
2021/07/14 03:11:43;;;;;;;35.38;25.15;;;;;15.80;101001.00;;;;5047642;28;20032;-73
2021/07/14 03:14:15;;;;;;;42.50;24.38;;;;;15.80;100982.00;;;;5047518;28;20397;-70
2021/07/14 03:16:43;;;;;;;37.92;23.98;;;;;15.80;100976.00;;;;5047762;28;20029;-72
2021/07/14 03:19:11;;;;;;;36.42;22.77;;;;;15.90;100978.00;;;;5046671;28;20041;-70
2021/07/14 03:21:38;;;;;;;37.05;23.25;;;;;16.00;100969.00;;;;5046970;28;20037;-70
2021/07/14 03:24:08;;;;;;;39.33;22.02;;;;;16.00;100960.00;;;;5047464;28;20159;-73
2021/07/14 03:26:38;;;;;;;40.80;21.90;;;;;16.00;100951.00;;;;5046976;28;20024;-72
2021/07/14 03:29:05;;;;;;;32.85;21.50;;;;;15.90;100964.00;;;;5047029;28;20025;-71
2021/07/14 03:31:33;;;;;;;34.65;21.98;;;;;15.80;100969.00;;;;5046551;28;20041;-73
2021/07/14 03:34:00;;;;;;;36.30;22.25;;;;;15.80;101006.00;;;;5046779;28;20117;-73
2021/07/14 03:36:28;;;;;;;30.52;22.13;;;;;15.70;101009.00;;;;5047134;28;20619;-73
2021/07/14 03:38:55;;;;;;;39.55;23.52;;;;;15.60;101035.00;;;;5046866;28;20098;-70
2021/07/14 03:41:22;;;;;;;37.80;21.75;;;;;15.60;101010.00;;;;5047009;28;20037;-70
2021/07/14 03:43:52;;;;;;;34.55;22.05;;;;;15.60;101013.00;;;;5046668;28;20024;-72
2021/07/14 03:46:20;;;;;;;37.25;23.13;;;;;15.50;101023.00;;;;5046312;28;20053;-72
2021/07/14 03:48:48;;;;;;;33.10;21.70;;;;;15.50;101015.00;;;;5046646;28;20104;-72
2021/07/14 03:51:17;;;;;;;43.05;23.02;;;;;15.50;101007.00;;;;5046174;28;20036;-73
2021/07/14 03:53:45;;;;;;;39.10;22.83;;;;;15.50;101009.00;;;;5046370;28;20408;-73
2021/07/14 03:56:12;;;;;;;28.45;21.92;;;;;15.40;101009.00;;;;5046912;28;20060;-73
2021/07/14 03:58:43;;;;;;;31.27;20.50;;;;;15.30;101005.00;;;;5046144;28;20033;-72
2021/07/14 04:01:12;;;;;;;31.17;22.60;;;;;15.30;101003.00;;;;5046909;28;20029;-71
2021/07/14 04:03:40;;;;;;;28.33;21.45;;;;;15.30;100990.00;;;;5046297;28;20115;-71
2021/07/14 04:06:08;;;;;;;33.13;19.77;;;;;15.30;100969.00;;;;5046032;28;20470;-72
2021/07/14 04:08:43;;;;;;;39.80;20.35;;;;;15.40;100989.00;;;;5046394;28;20028;-72
2021/07/14 04:11:14;;;;;;;31.77;20.45;;;;;15.50;100972.00;;;;5046045;28;20032;-72
2021/07/14 04:13:42;;;;;;;31.73;19.85;;;;;15.50;100972.00;;;;5046302;28;20120;-71
2021/07/14 04:16:09;;;;;;;40.85;21.35;;;;;15.60;100992.00;;;;5045963;28;20422;-72
2021/07/14 04:18:37;;;;;;;25.20;20.13;;;;;15.60;100996.00;;;;5045830;28;20068;-73
2021/07/14 04:21:03;;;;;;;32.15;20.50;;;;;15.60;100997.00;;;;5045882;28;20049;-71
2021/07/14 04:23:30;;;;;;;35.85;20.48;;;;;15.70;100992.00;;;;5045794;28;20464;-72
2021/07/14 04:25:57;;;;;;;31.38;19.88;;;;;15.70;100996.00;;;;5046086;28;20100;-72
2021/07/14 04:28:25;;;;;;;30.13;20.42;;;;;15.70;101001.00;;;;5046083;28;20412;-71
2021/07/14 04:30:51;;;;;;;32.58;19.90;;;;;15.60;100981.00;;;;5046083;28;20032;-72
2021/07/14 04:33:18;;;;;;;32.17;20.13;;;;;15.60;100974.00;;;;5046677;28;20021;-71
2021/07/14 04:35:45;;;;;;;32.05;19.17;;;;;15.60;100971.00;;;;5046216;28;20029;-70
2021/07/14 04:38:11;;;;;;;23.05;18.17;;;;;15.60;100963.00;;;;5046094;28;20037;-73
2021/07/14 04:40:38;;;;;;;26.65;18.30;;;;;15.60;100964.00;;;;5046563;28;20076;-70
2021/07/14 04:43:04;;;;;;;32.88;19.17;;;;;15.60;100959.00;;;;5045863;28;20029;-71
2021/07/14 04:45:31;;;;;;;29.98;18.95;;;;;15.60;100951.00;;;;5045594;28;20040;-71
2021/07/14 04:47:58;;;;;;;25.63;18.05;;;;;15.60;100949.00;;;;5046594;28;20029;-72
2021/07/14 04:50:24;;;;;;;26.33;18.90;;;;;15.60;100941.00;;;;5045830;28;20039;-73
2021/07/14 04:52:51;;;;;;;30.13;17.95;;;;;15.60;100956.00;;;;5046621;28;20025;-72
2021/07/14 04:55:17;;;;;;;25.15;19.42;;;;;15.60;100972.00;;;;5049386;28;20033;-71
2021/07/14 04:57:44;;;;;;;27.98;19.83;;;;;15.50;100968.00;;;;5048997;28;20032;-70
2021/07/14 05:00:11;;;;;;;32.20;20.90;;;;;15.40;100977.00;;;;5046888;28;20343;-73
2021/07/14 05:02:37;;;;;;;29.85;20.52;;;;;15.20;100960.00;;;;5048919;28;20512;-71
2021/07/14 05:05:05;;;;;;;37.30;21.58;;;;;15.10;100951.00;;;;5049380;28;20033;-73
2021/07/14 05:07:31;;;;;;;41.22;21.38;;;;;15.00;100956.00;;;;5049470;28;20523;-72
2021/07/14 05:09:58;;;;;;;25.73;21.20;;;;;15.00;100948.00;;;;5049224;28;20122;-70
2021/07/14 05:12:25;;;;;;;34.83;22.58;;;;;14.90;100962.00;;;;5049974;28;20028;-71
2021/07/14 05:14:52;;;;;;;35.83;21.40;;;;;14.90;100951.00;;;;5049152;28;20032;-72
2021/07/14 05:17:18;;;;;;;38.30;21.17;;;;;14.90;100932.00;;;;5049197;28;20182;-70
2021/07/14 05:19:45;;;;;;;29.30;21.38;;;;;14.90;100928.00;;;;5049304;28;20377;-72
2021/07/14 05:22:13;;;;;;;31.45;21.50;;;;;14.90;100904.00;;;;5049201;28;20053;-69
2021/07/14 05:24:41;;;;;;;30.45;21.90;;;;;14.90;100924.00;;;;5049584;28;20407;-73
2021/07/14 05:27:07;;;;;;;28.80;20.13;;;;;14.80;100965.00;;;;5049439;28;20025;-73
2021/07/14 05:29:34;;;;;;;36.83;24.35;;;;;14.90;100982.00;;;;5049633;28;20031;-71
2021/07/14 05:32:01;;;;;;;29.40;22.00;;;;;14.90;100979.00;;;;5048931;28;20420;-73
2021/07/14 05:34:27;;;;;;;27.85;21.40;;;;;14.90;100956.00;;;;5048751;28;20438;-71
2021/07/14 05:36:54;;;;;;;34.83;21.38;;;;;14.90;100945.00;;;;5049379;28;20450;-69
2021/07/14 05:39:21;;;;;;;29.75;20.55;;;;;14.90;100938.00;;;;5048651;28;20035;-72
2021/07/14 05:41:48;;;;;;;27.40;22.35;;;;;14.80;100935.00;;;;5048641;28;20032;-72
2021/07/14 05:44:14;;;;;;;28.35;21.63;;;;;14.80;100921.00;;;;5049791;28;20074;-69
2021/07/14 05:46:41;;;;;;;28.02;20.65;;;;;14.80;100939.00;;;;5048879;28;20032;-73
2021/07/14 05:49:08;;;;;;;31.23;21.13;;;;;14.70;100924.00;;;;5048234;28;20586;-71
2021/07/14 05:51:34;;;;;;;33.38;22.27;;;;;14.70;100907.00;;;;5049111;28;20089;-71
2021/07/14 05:54:01;;;;;;;30.95;20.60;;;;;14.70;100893.00;;;;5049432;28;20021;-72
2021/07/14 05:56:27;;;;;;;31.85;22.55;;;;;14.60;100899.00;;;;5049137;28;20033;-71
2021/07/14 05:58:54;;;;;;;30.95;22.30;;;;;14.50;100923.00;;;;5048467;28;20043;-73
2021/07/14 06:01:21;;;;;;;38.38;23.48;;;;;14.50;100936.00;;;;5048631;28;20025;-74
2021/07/14 06:03:48;;;;;;;35.53;22.60;;;;;14.50;100936.00;;;;5048245;28;20125;-73
2021/07/14 06:06:16;;;;;;;29.60;21.50;;;;;14.50;100925.00;;;;5048434;28;20044;-72
2021/07/14 06:08:43;;;;;;;29.42;20.77;;;;;14.50;100943.00;;;;5048678;28;20033;-73
2021/07/14 06:11:10;;;;;;;26.13;20.83;;;;;14.40;100937.00;;;;5048244;28;20025;-71
2021/07/14 06:13:37;;;;;;;29.85;22.27;;;;;14.40;100927.00;;;;5046982;28;20056;-73
2021/07/14 06:16:04;;;;;;;30.38;22.30;;;;;14.40;100921.00;;;;5048220;28;20514;-71
2021/07/14 06:18:31;;;;;;;27.02;20.75;;;;;14.40;100887.00;;;;5049199;28;20094;-73
2021/07/14 06:20:57;;;;;;;26.40;20.80;;;;;14.40;100877.00;;;;5048228;28;20021;-71
2021/07/14 06:23:24;;;;;;;35.33;23.00;;;;;14.40;100906.00;;;;5048624;28;21072;-72
2021/07/14 06:25:51;;;;;;;28.88;20.38;;;;;14.40;100894.00;;;;5048354;28;20033;-69
2021/07/14 06:28:17;;;;;;;29.33;18.85;;;;;14.40;100898.00;;;;5048090;28;20025;-71
2021/07/14 06:30:47;;;;;;;30.23;20.38;;;;;14.30;100916.00;;;;5047783;28;20028;-71
2021/07/14 06:33:14;;;;;;;30.08;20.83;;;;;14.30;100913.00;;;;5048168;28;20044;-72
2021/07/14 06:35:42;;;;;;;28.15;19.85;;;;;14.30;100902.00;;;;5047859;28;20029;-72
2021/07/14 06:38:09;;;;;;;21.90;17.92;;;;;14.30;100893.00;;;;5048190;28;20040;-70
2021/07/14 06:40:37;;;;;;;27.10;19.08;;;;;14.20;100882.00;;;;5047960;28;20029;-73
2021/07/14 06:43:07;;;;;;;32.63;20.88;;;;;14.20;100879.00;;;;5048495;28;20028;-71
2021/07/14 06:45:35;;;;;;;25.52;18.63;;;;;14.20;100893.00;;;;5047975;28;20489;-73
2021/07/14 06:48:02;;;;;;;28.02;18.75;;;;;14.30;100894.00;;;;5047931;28;20510;-70
2021/07/14 06:50:29;;;;;;;30.95;19.08;;;;;14.40;100894.00;;;;5047421;28;20021;-72
2021/07/14 06:52:56;;;;;;;24.10;19.98;;;;;14.30;100876.00;;;;5047595;28;20024;-70
2021/07/14 06:55:23;;;;;;;33.80;21.15;;;;;14.30;100875.00;;;;5047566;28;20036;-72
2021/07/14 06:57:49;;;;;;;39.38;20.92;;;;;14.30;100888.00;;;;5047306;28;20409;-71
2021/07/14 07:00:16;;;;;;;27.55;21.33;;;;;14.30;100886.00;;;;5047600;28;20438;-72
2021/07/14 07:02:44;;;;;;;33.20;20.45;;;;;14.30;100881.00;;;;5047246;28;20528;-71
2021/07/14 07:05:11;;;;;;;32.55;20.60;;;;;14.30;100876.00;;;;5047378;28;20481;-71
2021/07/14 07:07:38;;;;;;;22.05;18.70;;;;;14.40;100880.00;;;;5047349;28;20103;-73
2021/07/14 07:10:06;;;;;;;30.42;19.33;;;;;14.40;100853.00;;;;5047728;28;20035;-72
2021/07/14 07:12:33;;;;;;;31.40;20.20;;;;;14.30;100863.00;;;;5047552;28;20035;-69
2021/07/14 07:15:00;;;;;;;23.80;18.60;;;;;14.40;100834.00;;;;5046883;28;20107;-71
2021/07/14 07:17:27;;;;;;;32.58;21.02;;;;;14.40;100836.00;;;;5046983;28;20290;-73
2021/07/14 07:19:54;;;;;;;31.33;19.55;;;;;14.40;100832.00;;;;5046909;28;20067;-72
2021/07/14 07:22:20;;;;;;;32.38;20.25;;;;;14.40;100822.00;;;;5046612;28;20053;-69
2021/07/14 07:24:47;;;;;;;28.05;19.08;;;;;14.40;100820.00;;;;5046820;28;20039;-73
2021/07/14 07:27:14;;;;;;;23.33;19.23;;;;;14.40;100804.00;;;;5047418;28;20112;-72
2021/07/14 07:29:40;;;;;;;25.13;18.83;;;;;14.40;100797.00;;;;5047346;28;20047;-72
2021/07/14 07:32:07;;;;;;;28.88;19.48;;;;;14.40;100796.00;;;;5046564;28;20025;-73
2021/07/14 07:34:34;;;;;;;27.85;20.40;;;;;14.40;100794.00;;;;5046988;28;20472;-72
2021/07/14 07:37:03;;;;;;;30.42;21.58;;;;;14.30;100800.00;;;;5047247;28;20035;-71
2021/07/14 07:39:31;;;;;;;29.48;20.88;;;;;14.30;100788.00;;;;5046814;28;20033;-71
2021/07/14 07:42:01;;;;;;;23.48;19.65;;;;;14.30;100768.00;;;;5047367;28;20590;-72
2021/07/14 07:44:28;;;;;;;31.00;20.40;;;;;14.30;100762.00;;;;5046441;28;20033;-70
2021/07/14 07:46:55;;;;;;;29.25;19.05;;;;;14.30;100758.00;;;;5045281;28;20271;-71
2021/07/14 07:49:22;;;;;;;31.13;19.17;;;;;14.30;100741.00;;;;5046826;28;20032;-72
2021/07/14 07:51:48;;;;;;;33.20;18.42;;;;;14.40;100718.00;;;;5046228;28;20036;-69
2021/07/14 07:54:15;;;;;;;25.80;19.17;;;;;14.40;100718.00;;;;5046538;28;20028;-72
2021/07/14 07:56:42;;;;;;;33.22;19.48;;;;;14.50;100699.00;;;;5046601;28;20028;-71
2021/07/14 07:59:08;;;;;;;37.80;18.95;;;;;14.50;100716.00;;;;5046244;28;20029;-69
2021/07/14 08:01:37;;;;;;;35.33;23.65;;;;;14.50;100716.00;;;;5047299;28;20392;-72
2021/07/14 08:04:04;;;;;;;34.22;20.17;;;;;14.40;100721.00;;;;5046313;28;20039;-70
2021/07/14 08:06:31;;;;;;;26.60;19.67;;;;;14.40;100721.00;;;;5046942;28;20538;-70
2021/07/14 08:08:58;;;;;;;31.40;20.98;;;;;14.40;100689.00;;;;5046399;28;20060;-73
2021/07/14 08:11:24;;;;;;;35.03;21.42;;;;;14.40;100702.00;;;;5046493;28;20025;-73
2021/07/14 08:13:54;;;;;;;26.92;20.17;;;;;14.40;100700.00;;;;5046580;28;20116;-72
2021/07/14 08:16:22;;;;;;;26.52;20.83;;;;;14.50;100706.00;;;;5046285;28;20039;-70
2021/07/14 08:18:49;;;;;;;28.95;18.98;;;;;14.50;100687.00;;;;5046120;28;20456;-71
2021/07/14 08:21:15;;;;;;;32.00;20.23;;;;;14.50;100686.00;;;;5045935;28;20388;-70
2021/07/14 08:23:42;;;;;;;42.60;20.00;;;;;14.50;100684.00;;;;5046265;28;20068;-72
2021/07/14 08:26:09;;;;;;;26.02;19.08;;;;;14.40;100704.00;;;;5046862;28;20037;-71
2021/07/14 08:28:35;;;;;;;24.27;18.08;;;;;14.50;100688.00;;;;5044803;28;20108;-73
2021/07/14 08:31:02;;;;;;;27.95;18.75;;;;;14.50;100708.00;;;;5046290;28;20039;-72
2021/07/14 08:33:28;;;;;;;23.25;17.80;;;;;14.50;100714.00;;;;5046051;28;20029;-70
2021/07/14 08:35:55;;;;;;;22.90;16.35;;;;;14.60;100729.00;;;;5045778;28;20024;-72
2021/07/14 08:38:22;;;;;;;23.08;16.73;;;;;14.60;100739.00;;;;5046252;28;20045;-72
2021/07/14 08:40:51;;;;;;;25.42;17.63;;;;;14.60;100740.00;;;;5046104;28;20488;-70
2021/07/14 08:43:20;;;;;;;21.38;15.98;;;;;14.70;100725.00;;;;5046081;28;20111;-73
2021/07/14 08:45:50;;;;;;;23.75;15.57;;;;;14.70;100708.00;;;;5045945;28;20037;-70
2021/07/14 08:48:16;;;;;;;23.33;15.65;;;;;14.60;100697.00;;;;5045267;28;20028;-71
2021/07/14 08:50:44;;;;;;;25.02;14.63;;;;;14.60;100701.00;;;;5046069;28;20029;-69
2021/07/14 08:53:21;;;;;;;22.52;14.75;;;;;14.70;100708.00;;;;5046152;28;20025;-72
2021/07/14 08:55:49;;;;;;;27.20;16.90;;;;;14.70;100726.00;;;;5046006;28;20028;-72
2021/07/14 08:58:18;;;;;;;25.58;15.77;;;;;14.70;100697.00;;;;5045865;28;20463;-73
2021/07/14 09:00:46;;;;;;;19.92;14.60;;;;;14.70;100709.00;;;;5045690;28;20068;-73
2021/07/14 09:03:12;;;;;;;22.13;15.32;;;;;14.70;100710.00;;;;5045891;28;20040;-71
2021/07/14 09:05:39;;;;;;;19.95;14.95;;;;;14.70;100719.00;;;;5045322;28;20064;-73
2021/07/14 09:08:07;;;;;;;23.48;15.82;;;;;14.70;100690.00;;;;5045579;28;20033;-73
2021/07/14 09:10:34;;;;;;;26.27;16.92;;;;;14.70;100685.00;;;;5045793;28;20083;-72
2021/07/14 09:13:01;;;;;;;24.70;15.50;;;;;14.70;100698.00;;;;5045627;28;20040;-73
2021/07/14 09:15:31;;;;;;;24.77;16.23;;;;;14.60;100688.00;;;;5045576;28;20031;-74
2021/07/14 09:18:00;;;;;;;26.40;16.42;;;;;14.60;100707.00;;;;5045468;28;20044;-71
2021/07/14 09:20:28;;;;;;;22.75;16.35;;;;;14.60;100706.00;;;;5045357;28;20317;-73
2021/07/14 09:23:02;;;;;;;27.95;14.95;;;;;14.50;100694.00;;;;5045722;28;20335;-71
2021/07/14 09:25:30;;;;;;;29.33;16.63;;;;;14.50;100695.00;;;;5046079;28;20563;-72
2021/07/14 09:27:59;;;;;;;25.88;17.33;;;;;14.50;100691.00;;;;5045590;28;20029;-71
2021/07/14 09:30:27;;;;;;;27.63;18.15;;;;;14.40;100672.00;;;;5045918;28;20029;-71
2021/07/14 09:33:00;;;;;;;23.08;17.25;;;;;14.40;100693.00;;;;5045787;28;20033;-73
2021/07/14 09:35:46;;;;;;;27.38;17.92;;;;;14.30;100695.00;;;;5045936;28;20070;-71
2021/07/14 09:38:20;;;;;;;28.73;19.02;;;;;14.40;100698.00;;;;5045526;28;20037;-73
2021/07/14 09:40:54;;;;;;;28.95;18.23;;;;;14.40;100700.00;;;;5049504;28;20033;-70
2021/07/14 09:43:26;;;;;;;28.63;18.30;;;;;14.50;100707.00;;;;5049180;28;20024;-72
2021/07/14 09:45:57;;;;;;;33.70;17.23;;;;;14.50;100708.00;;;;5049034;28;20111;-70
2021/07/14 09:48:25;;;;;;;;;;;;;14.60;100707.00;;;;5049600;28;20479;-70
2021/07/14 09:50:51;;;;;;;26.55;17.95;;;;;14.70;100710.00;;;;5048418;28;20280;-72
2021/07/14 09:53:20;;;;;;;29.35;16.77;;;;;14.60;100712.00;;;;5049100;28;20028;-72
2021/07/14 09:55:53;;;;;;;37.47;16.55;;;;;14.60;100697.00;;;;5048693;28;20036;-71
2021/07/14 09:58:25;;;;;;;22.08;15.10;;;;;14.50;100693.00;;;;5048577;28;20116;-71
2021/07/14 10:00:57;;;;;;;20.63;15.65;;;;;14.40;100714.00;;;;5048614;28;20021;-72
2021/07/14 10:03:38;;;;;;;29.63;17.50;;;;;14.40;100697.00;;;;5048351;28;20037;-72
2021/07/14 10:06:06;;;;;;;29.75;17.95;;;;;14.40;100717.00;;;;5048704;28;20051;-71
2021/07/14 10:08:35;;;;;;;45.85;19.58;;;;;14.50;100692.00;;;;5048776;28;20044;-71
2021/07/14 10:11:20;;;;;;;45.80;17.67;;;;;14.50;100695.00;;;;5048546;28;20060;-73
2021/07/14 10:14:07;;;;;;;23.80;16.20;;;;;14.40;100677.00;;;;5048739;28;20061;-72
2021/07/14 10:16:35;;;;;;;25.92;16.90;;;;;14.30;100671.00;;;;5048868;28;20042;-73
2021/07/14 10:19:12;;;;;;;26.25;16.92;;;;;14.20;100681.00;;;;5047771;28;20115;-70
2021/07/14 10:21:45;;;;;;;27.65;17.42;;;;;14.20;100657.00;;;;5047693;28;20532;-73
2021/07/14 10:24:14;;;;;;;26.25;17.30;;;;;14.20;100673.00;;;;5048033;28;20029;-73
2021/07/14 10:26:42;;;;;;;26.50;17.85;;;;;14.30;100667.00;;;;5048084;28;20033;-72
2021/07/14 10:29:09;;;;;;;38.53;19.30;;;;;14.30;100665.00;;;;5047872;28;20029;-73
2021/07/14 10:31:37;;;;;;;24.40;16.63;;;;;14.30;100648.00;;;;5047273;28;20492;-72
2021/07/14 10:34:06;;;;;;;26.35;17.17;;;;;14.30;100646.00;;;;5048347;28;20029;-72
2021/07/14 10:36:38;;;;;;;30.35;18.75;;;;;14.30;100643.00;;;;5046335;28;20087;-72
2021/07/14 10:39:14;;;;;;;26.92;19.88;;;;;14.40;100635.00;;;;5048131;28;20032;-72
2021/07/14 10:41:41;;;;;;;28.15;19.67;;;;;14.40;100641.00;;;;5048162;28;20413;-74
2021/07/14 10:44:08;;;;;;;28.08;18.00;;;;;14.40;100632.00;;;;5047721;28;20021;-73
2021/07/14 10:46:37;;;;;;;37.38;20.75;;;;;14.50;100654.00;;;;5047450;28;20025;-69
2021/07/14 10:49:08;;;;;;;38.47;20.48;;;;;14.60;100660.00;;;;5047939;28;20033;-70
2021/07/14 10:51:36;;;;;;;30.97;18.70;;;;;14.70;100655.00;;;;5047233;28;20048;-71
2021/07/14 10:54:13;;;;;;;39.28;22.02;;;;;14.80;100642.00;;;;5047692;28;20043;-70
2021/07/14 10:56:45;;;;;;;51.67;21.10;;;;;14.80;100673.00;;;;5047556;28;20032;-73
2021/07/14 10:59:13;;;;;;;30.52;18.33;;;;;14.90;100671.00;;;;5047221;28;20036;-73
2021/07/14 11:01:51;;;;;;;33.45;17.40;;;;;14.90;100692.00;;;;5047303;28;20159;-71
2021/07/14 11:04:18;;;;;;;34.17;18.23;;;;;14.90;100693.00;;;;5047597;28;20598;-73
2021/07/14 11:06:59;;;;;;;36.95;20.60;;;;;15.10;100707.00;;;;5047248;28;20096;-73
2021/07/14 11:09:49;;;;;;;30.48;18.88;;;;;15.40;100709.00;;;;5048460;28;20021;-71
2021/07/14 11:12:37;;;;;;;45.00;19.90;;;;;16.20;100661.00;;;;5046781;28;20044;-72
2021/07/14 11:15:05;;;;;;;39.88;21.30;;;;;16.70;100633.00;;;;5047077;28;20045;-73
2021/07/14 11:17:36;;;;;;;36.20;18.42;;;;;17.20;100653.00;;;;5047211;28;20545;-71
2021/07/14 11:20:10;;;;;;;30.70;17.73;;;;;16.70;100725.00;;;;5046541;28;20037;-73
2021/07/14 11:22:45;;;;;;;25.75;17.08;;;;;16.40;100719.00;;;;5046866;28;20140;-72
2021/07/14 11:25:21;;;;;;;39.22;18.88;;;;;16.80;100687.00;;;;5047178;28;20029;-72
2021/07/14 11:27:53;;;;;;;61.90;19.30;;;;;18.10;100702.00;;;;5047150;28;20037;-72
2021/07/14 11:30:22;;;;;;;29.88;18.02;;;;;17.20;100733.00;;;;5046067;28;20112;-71
2021/07/14 11:32:49;;;;;;;32.05;19.38;;;;;16.60;100739.00;;;;5047154;28;20477;-72
2021/07/14 11:35:22;;;;;;;23.35;18.02;;;;;16.40;100736.00;;;;5047182;28;20502;-73
2021/07/14 11:37:55;;;;;;;43.13;20.35;;;;;16.30;100733.00;;;;5047343;28;20029;-72
2021/07/14 11:40:23;;;;;;;27.17;17.73;;;;;16.30;100721.00;;;;5047103;28;20171;-70
2021/07/14 11:42:56;;;;;;;29.23;19.30;;;;;16.30;100733.00;;;;5046751;28;20025;-70
2021/07/14 11:45:36;;;;;;;36.63;18.77;;;;;16.30;100723.00;;;;5046447;28;20029;-73
2021/07/14 11:48:12;;;;;;;26.60;19.80;;;;;16.20;100732.00;;;;5046643;28;20021;-69
2021/07/14 11:50:46;;;;;;;36.20;20.83;;;;;16.20;100722.00;;;;5046809;28;20063;-73
2021/07/14 11:53:42;;;;;;;39.13;19.45;;;;;16.20;100723.00;;;;5046196;28;20064;-71
2021/07/14 11:56:19;;;;;;;40.63;21.38;;;;;16.10;100711.00;;;;5046336;28;20111;-70
2021/07/14 11:59:04;;;;;;;29.38;16.98;;;;;16.10;100700.00;;;;5046309;28;20108;-74
2021/07/14 12:01:31;;;;;;;35.10;18.65;;;;;16.00;100718.00;;;;5046403;28;20518;-70
2021/07/14 12:06:38;;;;;;;20.33;17.45;;;;;16.00;100707.00;;;;5046197;28;20041;-71
2021/07/14 12:09:17;;;;;;;25.45;16.70;;;;;15.90;100703.00;;;;5046700;28;20526;-71
2021/07/14 12:11:54;;;;;;;27.17;18.10;;;;;15.90;100717.00;;;;5046486;28;20076;-71
2021/07/14 12:14:34;;;;;;;32.20;17.80;;;;;15.90;100708.00;;;;5045818;28;20033;-72